Time;durP1;ratioP1;P1;durP2;ratioP2;P2;SDS_P1;SDS_P2;PMS_P1;PMS_P2;Temp;Humidity;BMP_temperature;BMP_pressure;BME280_temperature;BME280_humidity;BME280_pressure;Samples;Min_cycle;Max_cycle;Signal;HPM_P1;HPM_P2
2023/05/07 00:02:00;;;;;;;10.90;9.85;;;;;;;;;;5045082;28;20049;-73
2023/05/07 00:04:27;;;;;;;11.43;10.30;;;;;;;;;;5028223;28;20056;-74
2023/05/07 00:06:53;;;;;;;13.50;11.95;;;;;;;;;;5027630;28;20056;-74
2023/05/07 00:09:19;;;;;;;11.32;10.13;;;;;;;;;;5027843;28;20387;-74
2023/05/07 00:11:46;;;;;;;13.40;11.65;;;;;;;;;;5028096;28;20495;-74
2023/05/07 00:14:12;;;;;;;13.05;11.73;;;;;;;;;;5046109;28;20060;-74
2023/05/07 00:16:38;;;;;;;14.48;11.07;;;;;;;;;;5027359;28;20049;-74
2023/05/07 00:19:04;;;;;;;11.38;9.93;;;;;;;;;;5045333;28;20164;-74
2023/05/07 00:21:30;;;;;;;11.70;10.48;;;;;;;;;;5045134;28;20051;-73
2023/05/07 00:23:56;;;;;;;10.10;9.05;;;;;;;;;;5045506;28;20091;-74
2023/05/07 00:26:22;;;;;;;10.20;9.15;;;;;;;;;;5027732;28;20494;-73
2023/05/07 00:28:48;;;;;;;11.07;9.45;;;;;;;;;;5026963;28;20052;-74
2023/05/07 00:31:14;;;;;;;15.52;9.40;;;;;;;;;;5027469;28;20045;-74
2023/05/07 00:33:40;;;;;;;11.98;9.45;;;;;;;;;;5026534;28;20045;-74
2023/05/07 00:36:06;;;;;;;12.45;11.10;;;;;;;;;;5044477;28;20076;-74
2023/05/07 00:38:32;;;;;;;11.23;10.02;;;;;;;;;;5045606;28;20131;-74
2023/05/07 00:40:58;;;;;;;13.45;10.02;;;;;;;;;;5045148;28;20053;-74
2023/05/07 00:43:24;;;;;;;11.07;9.85;;;;;;;;;;5044710;28;20442;-74
2023/05/07 00:45:50;;;;;;;10.35;8.98;;;;;;;;;;5044791;28;20526;-74
2023/05/07 00:48:17;;;;;;;12.02;10.75;;;;;;;;;;5023734;28;20053;-74
2023/05/07 00:50:43;;;;;;;11.82;10.63;;;;;;;;;;5026110;28;20222;-74
2023/05/07 00:53:09;;;;;;;12.88;11.05;;;;;;;;;;5044245;28;20041;-74
2023/05/07 00:55:36;;;;;;;12.57;11.27;;;;;;;;;;5027397;28;20057;-74
2023/05/07 00:58:02;;;;;;;11.68;10.48;;;;;;;;;;5043991;28;20048;-73
2023/05/07 01:00:29;;;;;;;12.10;10.75;;;;;;;;;;5027323;28;20045;-73
2023/05/07 01:02:55;;;;;;;15.82;13.02;;;;;;;;;;5044149;28;20033;-74
2023/05/07 01:05:24;;;;;;;13.45;11.88;;;;;;;;;;5044741;28;20044;-74
2023/05/07 01:07:50;;;;;;;13.55;11.23;;;;;;;;;;5044856;28;20072;-74
2023/05/07 01:10:17;;;;;;;14.43;11.65;;;;;;;;;;5026830;28;20475;-74
2023/05/07 01:12:43;;;;;;;11.73;10.52;;;;;;;;;;5026318;28;20136;-74
2023/05/07 01:15:10;;;;;;;12.00;10.77;;;;;;;;;;5026868;28;20138;-74
2023/05/07 01:17:37;;;;;;;9.60;8.70;;;;;;;;;;5045094;28;20047;-74
2023/05/07 01:20:04;;;;;;;10.35;9.35;;;;;;;;;;5026254;28;20127;-74
2023/05/07 01:22:32;;;;;;;10.57;9.27;;;;;;;;;;5045018;28;20057;-74
2023/05/07 01:24:59;;;;;;;11.77;10.35;;;;;;;;;;5025640;28;20091;-74
2023/05/07 01:27:25;;;;;;;12.65;11.05;;;;;;;;;;5027037;28;20055;-74
2023/05/07 01:29:51;;;;;;;14.60;12.20;;;;;;;;;;5044464;28;20080;-74
2023/05/07 01:32:19;;;;;;;15.07;13.48;;;;;;;;;;5026534;28;20048;-73
2023/05/07 01:34:46;;;;;;;16.05;13.45;;;;;;;;;;5026431;28;20442;-74
2023/05/07 01:37:12;;;;;;;16.35;14.23;;;;;;;;;;5026968;28;20103;-73
2023/05/07 01:39:39;;;;;;;14.20;12.88;;;;;;;;;;5025810;28;20055;-73
2023/05/07 01:42:06;;;;;;;10.80;9.75;;;;;;;;;;5044258;28;20447;-73
2023/05/07 01:44:33;;;;;;;13.10;11.82;;;;;;;;;;5044241;28;20586;-73
2023/05/07 01:46:59;;;;;;;15.43;13.82;;;;;;;;;;5042441;28;20061;-73
2023/05/07 01:49:25;;;;;;;18.50;14.45;;;;;;;;;;5044322;28;20582;-74
2023/05/07 01:51:52;;;;;;;14.77;13.27;;;;;;;;;;5026246;28;20102;-73
2023/05/07 01:54:18;;;;;;;15.18;13.68;;;;;;;;;;5026330;28;20053;-74
2023/05/07 01:56:44;;;;;;;15.77;14.15;;;;;;;;;;5028668;28;20140;-74
2023/05/07 01:59:10;;;;;;;15.40;13.77;;;;;;;;;;5030315;28;20060;-73
2023/05/07 02:01:36;;;;;;;16.00;14.15;;;;;;;;;;5047955;28;20053;-73
2023/05/07 02:04:02;;;;;;;19.13;16.30;;;;;;;;;;5048070;28;20043;-73
2023/05/07 02:06:28;;;;;;;15.60;13.70;;;;;;;;;;5030020;28;20137;-73
2023/05/07 02:08:54;;;;;;;14.05;12.70;;;;;;;;;;5047142;28;20136;-73
2023/05/07 02:11:20;;;;;;;16.23;14.52;;;;;;;;;;5029691;28;20048;-73
2023/05/07 02:13:46;;;;;;;16.35;14.00;;;;;;;;;;5029874;28;20061;-74
2023/05/07 02:16:14;;;;;;;15.18;13.57;;;;;;;;;;5047870;28;20376;-73
2023/05/07 02:18:40;;;;;;;14.65;13.07;;;;;;;;;;5048353;28;20053;-74
2023/05/07 02:21:06;;;;;;;15.90;14.30;;;;;;;;;;5029520;28;20514;-74
2023/05/07 02:23:32;;;;;;;17.83;14.88;;;;;;;;;;5047566;28;20049;-73
2023/05/07 02:25:58;;;;;;;14.77;13.25;;;;;;;;;;5047486;28;20037;-74
2023/05/07 02:28:24;;;;;;;14.77;13.25;;;;;;;;;;5029560;28;20056;-73
2023/05/07 02:30:50;;;;;;;14.85;13.18;;;;;;;;;;5048136;28;20049;-73
2023/05/07 02:33:16;;;;;;;11.88;10.60;;;;;;;;;;5048095;28;20048;-73
2023/05/07 02:35:42;;;;;;;13.73;12.35;;;;;;;;;;5047484;28;20048;-73
2023/05/07 02:38:10;;;;;;;14.00;12.25;;;;;;;;;;5029737;28;20040;-74
2023/05/07 02:40:39;;;;;;;14.18;11.88;;;;;;;;;;5030206;28;20052;-73
2023/05/07 02:43:05;;;;;;;15.02;12.88;;;;;;;;;;5047226;28;20132;-74
2023/05/07 02:45:32;;;;;;;13.98;12.05;;;;;;;;;;5047991;28;20053;-74
2023/05/07 02:47:58;;;;;;;11.07;9.85;;;;;;;;;;5029136;28;20063;-74
2023/05/07 02:50:25;;;;;;;13.00;11.65;;;;;;;;;;5045807;28;20501;-74
2023/05/07 02:52:51;;;;;;;15.32;13.32;;;;;;;;;;5047379;28;20056;-73
2023/05/07 02:55:17;;;;;;;12.82;11.35;;;;;;;;;;5047650;28;20589;-74
2023/05/07 02:57:43;;;;;;;15.18;13.57;;;;;;;;;;5046712;28;20142;-73
2023/05/07 03:00:16;;;;;;;14.68;12.40;;;;;;;;;;5046917;28;20107;-74
2023/05/07 03:02:42;;;;;;;12.70;11.40;;;;;;;;;;5029838;28;20428;-73
2023/05/07 03:05:08;;;;;;;14.30;12.80;;;;;;;;;;5045338;28;20049;-73
2023/05/07 03:07:35;;;;;;;16.80;13.75;;;;;;;;;;5027603;28;20072;-73
2023/05/07 03:10:01;;;;;;;15.20;13.57;;;;;;;;;;5028641;28;20049;-73
2023/05/07 03:12:27;;;;;;;17.35;15.57;;;;;;;;;;5046661;28;20052;-73
2023/05/07 03:14:53;;;;;;;15.40;12.52;;;;;;;;;;5046804;28;20055;-74
2023/05/07 03:17:19;;;;;;;13.90;12.43;;;;;;;;;;5046845;28;20048;-74
2023/05/07 03:19:45;;;;;;;13.77;11.40;;;;;;;;;;5028861;28;20049;-74
2023/05/07 03:22:11;;;;;;;14.40;12.80;;;;;;;;;;5028763;28;20432;-73
2023/05/07 03:24:37;;;;;;;13.93;12.40;;;;;;;;;;5046480;28;20049;-73
2023/05/07 03:27:03;;;;;;;15.55;13.88;;;;;;;;;;5028867;28;20662;-73
2023/05/07 03:29:29;;;;;;;18.35;14.95;;;;;;;;;;5047063;28;20085;-74
2023/05/07 03:31:55;;;;;;;17.10;13.10;;;;;;;;;;5045622;28;20153;-73
2023/05/07 03:34:22;;;;;;;15.95;13.52;;;;;;;;;;5029245;28;20069;-74
2023/05/07 03:36:51;;;;;;;14.00;12.55;;;;;;;;;;5028571;28;20069;-74
2023/05/07 03:39:17;;;;;;;13.88;12.43;;;;;;;;;;5028016;28;20064;-73
2023/05/07 03:41:43;;;;;;;13.18;11.40;;;;;;;;;;5046983;28;20036;-73
2023/05/07 03:44:09;;;;;;;13.77;12.38;;;;;;;;;;5028190;28;20067;-73
2023/05/07 03:46:35;;;;;;;12.57;11.27;;;;;;;;;;5027768;28;20866;-73
2023/05/07 03:49:01;;;;;;;12.05;10.73;;;;;;;;;;5028492;28;20129;-73
2023/05/07 03:51:27;;;;;;;15.90;12.52;;;;;;;;;;5046335;28;20049;-73
2023/05/07 03:53:53;;;;;;;11.57;10.38;;;;;;;;;;5027174;28;20036;-73
2023/05/07 03:56:20;;;;;;;14.15;11.90;;;;;;;;;;5028718;28;20048;-73
2023/05/07 03:58:46;;;;;;;15.13;13.27;;;;;;;;;;5028342;28;20057;-73
2023/05/07 04:01:12;;;;;;;15.02;12.95;;;;;;;;;;5027743;28;20053;-73
2023/05/07 04:03:38;;;;;;;16.65;14.32;;;;;;;;;;5046149;28;20041;-72
2023/05/07 04:06:04;;;;;;;13.27;11.88;;;;;;;;;;5027643;28;20091;-73
2023/05/07 04:08:30;;;;;;;12.73;11.43;;;;;;;;;;5045720;28;20049;-73
2023/05/07 04:10:57;;;;;;;14.85;13.18;;;;;;;;;;5027359;28;20077;-73
2023/05/07 04:13:23;;;;;;;16.27;12.63;;;;;;;;;;5028088;28;20147;-73
2023/05/07 04:15:49;;;;;;;19.00;15.30;;;;;;;;;;5027277;28;20040;-73
2023/05/07 04:18:15;;;;;;;20.80;16.88;;;;;;;;;;5028216;28;20406;-73
2023/05/07 04:20:41;;;;;;;20.60;17.00;;;;;;;;;;5045063;28;20110;-73
2023/05/07 04:23:07;;;;;;;18.17;15.02;;;;;;;;;;5027872;28;20060;-73
2023/05/07 04:25:34;;;;;;;21.98;16.80;;;;;;;;;;5028184;28;20044;-73
2023/05/07 04:28:00;;;;;;;18.15;16.05;;;;;;;;;;5026904;28;20063;-73
2023/05/07 04:30:26;;;;;;;22.17;19.33;;;;;;;;;;5045487;28;20056;-73
2023/05/07 04:32:52;;;;;;;21.42;18.00;;;;;;;;;;5045542;28;20664;-73
2023/05/07 04:35:18;;;;;;;19.55;16.42;;;;;;;;;;5045144;28;20049;-73
2023/05/07 04:37:44;;;;;;;17.63;15.25;;;;;;;;;;5028043;28;20533;-73
2023/05/07 04:40:10;;;;;;;16.38;14.65;;;;;;;;;;5045039;28;20045;-73
2023/05/07 04:42:36;;;;;;;17.90;15.35;;;;;;;;;;5044653;28;20056;-73
2023/05/07 04:45:04;;;;;;;19.10;16.48;;;;;;;;;;5045092;28;20052;-72
2023/05/07 04:47:30;;;;;;;17.50;14.90;;;;;;;;;;5026850;28;20122;-73
2023/05/07 04:49:56;;;;;;;16.65;14.02;;;;;;;;;;5044226;28;20659;-73
2023/05/07 04:52:22;;;;;;;15.23;13.63;;;;;;;;;;5027405;28;20049;-73
2023/05/07 04:54:48;;;;;;;13.05;11.30;;;;;;;;;;5044890;28;20048;-73
2023/05/07 04:57:14;;;;;;;13.55;12.02;;;;;;;;;;5026581;28;20126;-73
2023/05/07 04:59:40;;;;;;;13.95;12.43;;;;;;;;;;5027208;28;20045;-73
2023/05/07 05:02:06;;;;;;;14.60;12.13;;;;;;;;;;5026907;28;20053;-73
2023/05/07 05:04:32;;;;;;;15.15;13.25;;;;;;;;;;5044432;28;20041;-73
2023/05/07 05:06:58;;;;;;;16.52;13.93;;;;;;;;;;5026849;28;20045;-73
2023/05/07 05:09:24;;;;;;;15.50;13.68;;;;;;;;;;5027125;28;20033;-73
2023/05/07 05:11:50;;;;;;;17.08;15.18;;;;;;;;;;5026403;28;20267;-73
2023/05/07 05:14:16;;;;;;;15.90;14.20;;;;;;;;;;5044859;28;20047;-73
2023/05/07 05:16:42;;;;;;;14.02;12.45;;;;;;;;;;5027084;28;20454;-73
2023/05/07 05:19:08;;;;;;;15.38;13.38;;;;;;;;;;5044169;28;20041;-73
2023/05/07 05:21:34;;;;;;;15.85;14.05;;;;;;;;;;5044017;28;20088;-72
2023/05/07 05:24:00;;;;;;;15.02;13.43;;;;;;;;;;5043338;28;20499;-73
2023/05/07 05:26:26;;;;;;;17.35;14.68;;;;;;;;;;5026739;28;20561;-73
2023/05/07 05:28:52;;;;;;;14.43;12.57;;;;;;;;;;5026593;28;20064;-73
2023/05/07 05:31:19;;;;;;;14.10;12.68;;;;;;;;;;5025877;28;20682;-73
2023/05/07 05:33:45;;;;;;;12.30;10.30;;;;;;;;;;5044812;28;20033;-73
2023/05/07 05:36:12;;;;;;;15.00;13.25;;;;;;;;;;5027103;28;20143;-73
2023/05/07 05:38:38;;;;;;;17.88;13.88;;;;;;;;;;5026455;28;20539;-73
2023/05/07 05:41:04;;;;;;;21.15;17.90;;;;;;;;;;5026383;28;20287;-73
2023/05/07 05:43:30;;;;;;;18.52;16.08;;;;;;;;;;5026980;28;20263;-73
2023/05/07 05:45:57;;;;;;;17.92;14.60;;;;;;;;;;5043314;28;20056;-74
2023/05/07 05:48:23;;;;;;;14.60;13.10;;;;;;;;;;5026166;28;20438;-73
2023/05/07 05:50:49;;;;;;;17.63;14.07;;;;;;;;;;5026675;28;20060;-73
2023/05/07 05:53:15;;;;;;;16.33;14.52;;;;;;;;;;5026189;28;20040;-73
2023/05/07 05:55:42;;;;;;;16.85;13.50;;;;;;;;;;5026957;28;20053;-73
2023/05/07 05:58:09;;;;;;;16.42;14.48;;;;;;;;;;5043248;28;20037;-73
2023/05/07 06:00:35;;;;;;;13.75;12.23;;;;;;;;;;5025809;28;20415;-73
2023/05/07 06:03:01;;;;;;;16.95;13.98;;;;;;;;;;5026625;28;20487;-73
2023/05/07 06:05:27;;;;;;;15.57;13.40;;;;;;;;;;5026414;28;20055;-73
2023/05/07 06:07:53;;;;;;;15.45;12.88;;;;;;;;;;5025593;28;20045;-74
2023/05/07 06:10:19;;;;;;;13.75;12.35;;;;;;;;;;5026874;28;20057;-74
2023/05/07 06:12:45;;;;;;;14.07;12.15;;;;;;;;;;5026163;28;20156;-73
2023/05/07 06:15:11;;;;;;;12.65;10.68;;;;;;;;;;5043680;28;20049;-73
2023/05/07 06:17:37;;;;;;;13.43;12.02;;;;;;;;;;5044086;28;20566;-73
2023/05/07 06:20:03;;;;;;;13.93;11.85;;;;;;;;;;5043663;28;20045;-73
2023/05/07 06:22:29;;;;;;;11.02;9.93;;;;;;;;;;5026148;28;20056;-74
2023/05/07 06:24:55;;;;;;;13.20;11.90;;;;;;;;;;5025915;28;20045;-73
2023/05/07 06:27:21;;;;;;;16.23;13.52;;;;;;;;;;5025998;28;20052;-73
2023/05/07 06:29:48;;;;;;;15.70;13.88;;;;;;;;;;5025772;28;20045;-73
2023/05/07 06:32:14;;;;;;;11.80;10.60;;;;;;;;;;5044363;28;20048;-74
2023/05/07 06:34:40;;;;;;;11.15;9.65;;;;;;;;;;5042963;28;20051;-73
2023/05/07 06:37:07;;;;;;;12.70;11.32;;;;;;;;;;5025353;28;20451;-73
2023/05/07 06:39:33;;;;;;;12.95;11.20;;;;;;;;;;5025967;28;20069;-73
2023/05/07 06:42:01;;;;;;;12.30;11.05;;;;;;;;;;5043511;28;20045;-73
2023/05/07 06:44:27;;;;;;;14.00;12.57;;;;;;;;;;5029767;28;20049;-73
2023/05/07 06:46:53;;;;;;;16.00;13.95;;;;;;;;;;5029221;28;20064;-73
2023/05/07 06:49:19;;;;;;;12.80;11.52;;;;;;;;;;5028918;28;20052;-73
2023/05/07 06:51:45;;;;;;;11.90;10.65;;;;;;;;;;5047305;28;20049;-73
2023/05/07 06:54:11;;;;;;;14.30;12.38;;;;;;;;;;5047765;28;20099;-72
2023/05/07 06:56:37;;;;;;;13.13;11.73;;;;;;;;;;5028898;28;20458;-73
2023/05/07 06:59:03;;;;;;;14.85;12.80;;;;;;;;;;5029088;28;20045;-73
2023/05/07 07:01:29;;;;;;;16.88;14.38;;;;;;;;;;5047232;28;20800;-73
2023/05/07 07:03:55;;;;;;;15.95;13.85;;;;;;;;;;5030645;28;20048;-73
2023/05/07 07:06:21;;;;;;;15.85;14.15;;;;;;;;;;5029394;28;20404;-73
2023/05/07 07:08:47;;;;;;;17.85;14.98;;;;;;;;;;5047101;28;20087;-73
2023/05/07 07:11:13;;;;;;;14.95;13.35;;;;;;;;;;5046334;28;20044;-73
2023/05/07 07:13:40;;;;;;;15.88;13.55;;;;;;;;;;5047368;28;20041;-73
2023/05/07 07:16:06;;;;;;;16.52;13.90;;;;;;;;;;5021783;28;20126;-73
2023/05/07 07:18:32;;;;;;;13.52;12.15;;;;;;;;;;5035184;28;20057;-73
2023/05/07 07:20:58;;;;;;;12.60;11.30;;;;;;;;;;5045107;28;20079;-73
2023/05/07 07:23:25;;;;;;;14.68;11.52;;;;;;;;;;5045657;28;20044;-74
2023/05/07 07:25:51;;;;;;;15.35;13.77;;;;;;;;;;5027901;28;20169;-73
2023/05/07 07:28:17;;;;;;;13.13;11.60;;;;;;;;;;5023691;28;20037;-73
2023/05/07 07:30:44;;;;;;;15.57;13.85;;;;;;;;;;5045539;28;20100;-73
2023/05/07 07:33:10;;;;;;;15.00;13.43;;;;;;;;;;5045804;28;20051;-73
2023/05/07 07:35:36;;;;;;;13.38;11.98;;;;;;;;;;5028622;28;20049;-73
2023/05/07 07:38:02;;;;;;;17.88;14.13;;;;;;;;;;5044866;28;20120;-73
2023/05/07 07:40:28;;;;;;;16.20;13.85;;;;;;;;;;5028219;28;20597;-72
2023/05/07 07:42:54;;;;;;;13.50;11.30;;;;;;;;;;5027809;28;20372;-73
2023/05/07 07:45:21;;;;;;;14.18;12.00;;;;;;;;;;5027415;28;20041;-73
2023/05/07 07:47:47;;;;;;;12.63;11.27;;;;;;;;;;5045696;28;20099;-73
2023/05/07 07:50:13;;;;;;;16.23;12.77;;;;;;;;;;5027921;28;20053;-71
2023/05/07 07:52:39;;;;;;;14.50;12.07;;;;;;;;;;5027642;28;20118;-75
2023/05/07 07:55:05;;;;;;;13.98;12.13;;;;;;;;;;5043545;28;20392;-75
2023/05/07 07:57:31;;;;;;;16.60;14.00;;;;;;;;;;5040561;28;20660;-67
2023/05/07 07:59:57;;;;;;;15.48;13.82;;;;;;;;;;5036539;28;20055;-69
2023/05/07 08:02:26;;;;;;;13.75;11.75;;;;;;;;;;5037759;28;20705;-69
2023/05/07 08:04:52;;;;;;;13.45;12.05;;;;;;;;;;5044914;28;20044;-70
2023/05/07 08:07:20;;;;;;;13.70;12.23;;;;;;;;;;5027251;28;20461;-69
2023/05/07 08:09:46;;;;;;;17.42;15.57;;;;;;;;;;5043859;28;20471;-76
2023/05/07 08:12:13;;;;;;;16.23;14.45;;;;;;;;;;5027434;28;20057;-75
2023/05/07 08:14:39;;;;;;;13.30;11.80;;;;;;;;;;5023780;28;20041;-76
2023/05/07 08:17:05;;;;;;;15.07;13.43;;;;;;;;;;5032442;28;20921;-76
2023/05/07 08:19:31;;;;;;;13.02;11.73;;;;;;;;;;5046115;28;20049;-76
2023/05/07 08:21:57;;;;;;;15.27;12.82;;;;;;;;;;5044934;28;20156;-75
2023/05/07 08:24:23;;;;;;;14.15;12.65;;;;;;;;;;5042225;28;20037;-75
2023/05/07 08:26:49;;;;;;;16.35;14.65;;;;;;;;;;5029166;28;20071;-75
2023/05/07 08:29:15;;;;;;;15.73;12.55;;;;;;;;;;5029540;28;20049;-75
2023/05/07 08:31:41;;;;;;;16.63;14.30;;;;;;;;;;5027004;28;20052;-75
2023/05/07 08:34:07;;;;;;;18.30;16.33;;;;;;;;;;5044023;28;20048;-76
2023/05/07 08:36:33;;;;;;;17.42;15.43;;;;;;;;;;5046458;28;20043;-75
2023/05/07 08:39:00;;;;;;;17.30;15.50;;;;;;;;;;5043214;28;20080;-75
2023/05/07 08:41:26;;;;;;;18.83;16.27;;;;;;;;;;5042776;28;20053;-75
2023/05/07 08:43:53;;;;;;;14.80;13.25;;;;;;;;;;5045639;28;20048;-76
2023/05/07 08:46:20;;;;;;;20.70;18.38;;;;;;;;;;5037376;28;20483;-74
2023/05/07 08:48:49;;;;;;;15.82;14.23;;;;;;;;;;5044555;28;20445;-75
2023/05/07 08:51:16;;;;;;;14.93;12.95;;;;;;;;;;5028278;28;20136;-75
2023/05/07 08:53:42;;;;;;;16.15;13.82;;;;;;;;;;5028131;28;20407;-75
2023/05/07 08:56:09;;;;;;;15.23;13.70;;;;;;;;;;5025054;28;20576;-75
2023/05/07 08:58:35;;;;;;;17.17;14.82;;;;;;;;;;5030559;28;20149;-75
2023/05/07 09:01:03;;;;;;;22.45;18.38;;;;;;;;;;5025139;28;20049;-75
2023/05/07 09:03:31;;;;;;;16.80;15.05;;;;;;;;;;5024679;28;20075;-75
2023/05/07 09:05:57;;;;;;;18.05;15.13;;;;;;;;;;5024233;28;20096;-75
2023/05/07 09:08:25;;;;;;;18.00;15.98;;;;;;;;;;5044263;28;20045;-78
2023/05/07 09:10:52;;;;;;;14.85;12.93;;;;;;;;;;5026726;28;20045;-76
2023/05/07 09:13:18;;;;;;;14.13;12.65;;;;;;;;;;5026228;28;20131;-80
2023/05/07 09:15:44;;;;;;;16.95;15.23;;;;;;;;;;5044403;28;20598;-76
2023/05/07 09:18:10;;;;;;;15.27;13.07;;;;;;;;;;5026505;28;20106;-76
2023/05/07 09:20:37;;;;;;;14.63;13.23;;;;;;;;;;5044322;28;20049;-76
2023/05/07 09:23:03;;;;;;;20.10;17.90;;;;;;;;;;5025227;28;20080;-76
2023/05/07 09:25:30;;;;;;;14.90;13.38;;;;;;;;;;5026378;28;20221;-76
2023/05/07 09:27:56;;;;;;;17.17;15.35;;;;;;;;;;5025495;28;20128;-76
2023/05/07 09:30:22;;;;;;;18.25;16.25;;;;;;;;;;5043234;28;20128;-77
2023/05/07 09:32:48;;;;;;;21.35;17.70;;;;;;;;;;5044003;28;20055;-69
2023/05/07 09:35:17;;;;;;;15.93;14.32;;;;;;;;;;5044088;28;20078;-74
2023/05/07 09:37:43;;;;;;;17.15;15.35;;;;;;;;;;5043099;28;20376;-75
2023/05/07 09:40:21;;;;;;;15.73;14.07;;;;;;;;;;5025434;28;20048;-77
2023/05/07 09:42:47;;;;;;;17.55;15.57;;;;;;;;;;5024838;28;20056;-77
2023/05/07 09:45:13;;;;;;;17.85;15.93;;;;;;;;;;5043944;28;20048;-78
2023/05/07 09:47:40;;;;;;;16.85;15.10;;;;;;;;;;5044144;28;20450;-77
2023/05/07 09:50:07;;;;;;;18.20;16.23;;;;;;;;;;5026390;28;20101;-77
2023/05/07 09:52:35;;;;;;;17.08;15.27;;;;;;;;;;5024911;28;20501;-77
2023/05/07 09:55:01;;;;;;;17.35;14.57;;;;;;;;;;5025813;28;20637;-76
2023/05/07 09:57:28;;;;;;;15.20;13.60;;;;;;;;;;5026273;28;20198;-77
2023/05/07 09:59:54;;;;;;;16.38;14.15;;;;;;;;;;5043361;28;20403;-77
2023/05/07 10:02:21;;;;;;;14.57;13.07;;;;;;;;;;5044495;28;20053;-77
2023/05/07 10:04:48;;;;;;;16.60;14.90;;;;;;;;;;5026305;28;20049;-79
2023/05/07 10:07:15;;;;;;;19.45;14.80;;;;;;;;;;5025844;28;20049;-79
2023/05/07 10:09:42;;;;;;;15.63;14.07;;;;;;;;;;5026931;28;20052;-79
2023/05/07 10:12:09;;;;;;;16.58;14.70;;;;;;;;;;5026929;28;20510;-79
2023/05/07 10:14:36;;;;;;;15.75;14.15;;;;;;;;;;5026067;28;20048;-78
2023/05/07 10:17:03;;;;;;;16.25;14.10;;;;;;;;;;5026385;28;20048;-73
2023/05/07 10:19:29;;;;;;;16.60;14.73;;;;;;;;;;5047544;28;20636;-77
2023/05/07 10:21:56;;;;;;;17.42;15.52;;;;;;;;;;5029634;28;20053;-75
2023/05/07 10:24:27;;;;;;;16.88;15.07;;;;;;;;;;5030180;28;20045;-74
2023/05/07 10:26:53;;;;;;;17.88;15.77;;;;;;;;;;5058299;28;20032;-73
2023/05/07 10:29:25;;;;;;;14.27;12.77;;;;;;;;;;5063278;28;20598;-70
2023/05/07 10:31:57;;;;;;;18.67;15.95;;;;;;;;;;5059024;28;20656;-70
2023/05/07 10:34:28;;;;;;;17.40;15.57;;;;;;;;;;5061126;28;20048;-73
2023/05/07 10:36:54;;;;;;;17.38;15.43;;;;;;;;;;5034519;28;20041;-71
2023/05/07 10:39:21;;;;;;;20.73;16.70;;;;;;;;;;5034216;28;20555;-72
2023/05/07 10:41:48;;;;;;;17.88;14.63;;;;;;;;;;5036452;28;20047;-71
2023/05/07 10:44:40;;;;;;;16.88;15.10;;;;;;;;;;5022091;28;20044;-72
2023/05/07 10:47:10;;;;;;;15.85;12.45;;;;;;;;;;5021204;28;20060;-73
2023/05/07 10:49:37;;;;;;;14.82;13.30;;;;;;;;;;5019324;28;20777;-72
2023/05/07 10:52:14;;;;;;;17.10;15.30;;;;;;;;;;5021742;28;20170;-72
2023/05/07 10:54:40;;;;;;;15.48;13.95;;;;;;;;;;5031399;28;20045;-73
2023/05/07 10:57:33;;;;;;;18.45;16.10;;;;;;;;;;5031565;28;20376;-72
2023/05/07 10:59:59;;;;;;;15.88;14.27;;;;;;;;;;5044855;28;20060;-72
2023/05/07 11:02:45;;;;;;;20.77;15.50;;;;;;;;;;5028964;28;20044;-72
2023/05/07 11:05:21;;;;;;;14.57;13.05;;;;;;;;;;5050671;28;20052;-70
2023/05/07 11:07:57;;;;;;;14.15;12.68;;;;;;;;;;5028936;28;20518;-73
2023/05/07 11:10:23;;;;;;;13.90;12.48;;;;;;;;;;5029624;28;20155;-74
2023/05/07 11:12:52;;;;;;;15.35;13.65;;;;;;;;;;5045439;28;20582;-76
2023/05/07 11:15:35;;;;;;;14.25;12.88;;;;;;;;;;5045845;28;20057;-75
2023/05/07 11:18:01;;;;;;;;;;;;;;;;;;5046635;28;20113;-74
2023/05/07 11:20:50;;;;;;;15.23;13.82;;;;;;;;;;5028378;28;20456;-76
2023/05/07 11:23:35;;;;;;;17.30;15.50;;;;;;;;;;5020427;28;20092;-72
2023/05/07 11:26:04;;;;;;;14.70;13.02;;;;;;;;;;5042793;28;20048;-74
2023/05/07 11:28:40;;;;;;;13.50;12.07;;;;;;;;;;5027777;28;20058;-75
2023/05/07 11:31:06;;;;;;;15.63;14.13;;;;;;;;;;5044831;28;20053;-72
2023/05/07 11:33:32;;;;;;;12.00;10.75;;;;;;;;;;5046484;28;20132;-74
2023/05/07 11:35:58;;;;;;;15.90;14.30;;;;;;;;;;5045937;28;20137;-74
2023/05/07 11:38:25;;;;;;;13.43;12.15;;;;;;;;;;5027582;28;20051;-74
2023/05/07 11:40:52;;;;;;;13.45;12.15;;;;;;;;;;5027935;28;20105;-73
2023/05/07 11:43:18;;;;;;;14.65;13.05;;;;;;;;;;5028441;28;20111;-72
2023/05/07 11:45:45;;;;;;;13.18;11.77;;;;;;;;;;5027618;28;20045;-73
2023/05/07 11:48:12;;;;;;;13.55;12.25;;;;;;;;;;5006556;28;20262;-74
2023/05/07 11:50:51;;;;;;;13.65;12.35;;;;;;;;;;5005744;28;20041;-73
2023/05/07 11:53:17;;;;;;;11.55;10.35;;;;;;;;;;5005232;28;20518;-73
2023/05/07 11:55:43;;;;;;;14.02;12.05;;;;;;;;;;5004968;28;20041;-77
2023/05/07 11:58:10;;;;;;;14.02;12.63;;;;;;;;;;5005165;28;20085;-81
2023/05/07 12:00:36;;;;;;;12.35;11.15;;;;;;;;;;5006462;28;20045;-78
2023/05/07 12:03:05;;;;;;;11.45;10.45;;;;;;;;;;5005978;28;20507;-75
2023/05/07 12:05:31;;;;;;;14.80;13.23;;;;;;;;;;5007752;28;20076;-74
2023/05/07 12:07:58;;;;;;;12.02;11.00;;;;;;;;;;5004301;28;20053;-73
2023/05/07 12:10:24;;;;;;;9.93;9.02;;;;;;;;;;5004549;28;20132;-75
2023/05/07 12:12:50;;;;;;;9.15;8.30;;;;;;;;;;5011930;28;20049;-74
2023/05/07 12:15:17;;;;;;;11.27;10.18;;;;;;;;;;5006086;28;20049;-74
2023/05/07 12:17:44;;;;;;;11.43;10.32;;;;;;;;;;5004367;28;20149;-74
2023/05/07 12:20:10;;;;;;;11.27;10.23;;;;;;;;;;5003933;28;20049;-74
2023/05/07 12:22:37;;;;;;;12.93;10.57;;;;;;;;;;5007498;28;20049;-76
2023/05/07 12:25:03;;;;;;;11.02;10.02;;;;;;;;;;5005532;28;20050;-74
2023/05/07 12:27:30;;;;;;;9.35;8.55;;;;;;;;;;5000621;28;20514;-73
2023/05/07 12:29:58;;;;;;;11.88;10.68;;;;;;;;;;5004772;28;20528;-74
2023/05/07 12:32:24;;;;;;;11.43;10.27;;;;;;;;;;5004083;28;20408;-73
2023/05/07 12:34:51;;;;;;;12.18;11.00;;;;;;;;;;5004974;28;20041;-75
2023/05/07 12:37:17;;;;;;;9.55;8.75;;;;;;;;;;5004053;28;20140;-74
2023/05/07 12:39:49;;;;;;;9.32;8.52;;;;;;;;;;5005277;28;20606;-75
2023/05/07 12:42:16;;;;;;;11.73;10.63;;;;;;;;;;5004503;28;20046;-75
2023/05/07 12:44:45;;;;;;;10.50;9.50;;;;;;;;;;5005844;28;20049;-74
2023/05/07 12:47:12;;;;;;;10.93;9.57;;;;;;;;;;5027443;28;20064;-73
2023/05/07 12:49:39;;;;;;;8.95;8.15;;;;;;;;;;5026954;28;20052;-73
2023/05/07 12:52:06;;;;;;;10.80;9.85;;;;;;;;;;5025935;28;20060;-74
2023/05/07 12:54:32;;;;;;;9.05;8.25;;;;;;;;;;5024061;28;20131;-75
2023/05/07 12:57:05;;;;;;;9.65;8.65;;;;;;;;;;5026433;28;20106;-74
2023/05/07 12:59:35;;;;;;;10.60;9.70;;;;;;;;;;5026550;28;20052;-74
2023/05/07 13:02:01;;;;;;;11.52;10.50;;;;;;;;;;5025455;28;20053;-74
2023/05/07 13:04:27;;;;;;;13.65;10.82;;;;;;;;;;5027118;28;20037;-74
2023/05/07 13:06:53;;;;;;;10.45;9.55;;;;;;;;;;5027164;28;20068;-73
2023/05/07 13:09:20;;;;;;;8.15;7.43;;;;;;;;;;5024724;28;20044;-75
2023/05/07 13:11:46;;;;;;;9.65;8.75;;;;;;;;;;5025928;28;20048;-73
2023/05/07 13:14:12;;;;;;;8.88;8.05;;;;;;;;;;5025691;28;20052;-76
2023/05/07 13:16:38;;;;;;;8.43;7.68;;;;;;;;;;5043835;28;20037;-76
2023/05/07 13:19:04;;;;;;;8.52;7.78;;;;;;;;;;5043579;28;20053;-75
2023/05/07 13:21:33;;;;;;;8.75;8.05;;;;;;;;;;5044507;28;20574;-75
2023/05/07 13:24:00;;;;;;;7.85;7.18;;;;;;;;;;5043624;28;20045;-74
2023/05/07 13:26:26;;;;;;;8.32;7.63;;;;;;;;;;5025331;28;20110;-74
2023/05/07 13:28:53;;;;;;;11.80;10.52;;;;;;;;;;5042633;28;20403;-75
2023/05/07 13:31:20;;;;;;;9.43;8.63;;;;;;;;;;5042785;28;20048;-74
2023/05/07 13:33:46;;;;;;;9.07;8.32;;;;;;;;;;5043194;28;20135;-74
2023/05/07 13:36:12;;;;;;;10.00;9.00;;;;;;;;;;5042809;28;20099;-75
2023/05/07 13:38:39;;;;;;;9.80;8.90;;;;;;;;;;5025437;28;20503;-75
2023/05/07 13:41:05;;;;;;;5.88;5.38;;;;;;;;;;5042304;28;20049;-75
2023/05/07 13:43:33;;;;;;;7.35;6.55;;;;;;;;;;5042416;28;20048;-78
2023/05/07 13:45:59;;;;;;;7.88;7.28;;;;;;;;;;5024507;28;20514;-75
2023/05/07 13:48:25;;;;;;;7.30;6.70;;;;;;;;;;5038224;28;20041;-75
2023/05/07 13:50:51;;;;;;;7.65;7.05;;;;;;;;;;5017180;28;20639;-75
2023/05/07 13:53:18;;;;;;;11.07;9.38;;;;;;;;;;5047555;28;20052;-74
2023/05/07 13:55:44;;;;;;;7.28;6.68;;;;;;;;;;5039894;28;20487;-73
2023/05/07 13:58:10;;;;;;;7.32;6.72;;;;;;;;;;5040902;28;20045;-74
2023/05/07 14:00:36;;;;;;;9.00;8.20;;;;;;;;;;5019081;28;20064;-74
2023/05/07 14:03:02;;;;;;;7.65;7.05;;;;;;;;;;5032257;28;20057;-74
2023/05/07 14:05:28;;;;;;;8.80;8.00;;;;;;;;;;5033943;28;20415;-73
2023/05/07 14:07:55;;;;;;;8.32;7.63;;;;;;;;;;5033267;28;20037;-74
2023/05/07 14:10:21;;;;;;;7.82;7.13;;;;;;;;;;5034883;28;20037;-75
2023/05/07 14:12:47;;;;;;;7.78;6.97;;;;;;;;;;5045418;28;20049;-74
2023/05/07 14:15:13;;;;;;;8.32;7.63;;;;;;;;;;5022110;28;20053;-74
2023/05/07 14:17:39;;;;;;;6.22;5.72;;;;;;;;;;5034823;28;20048;-74
2023/05/07 14:20:06;;;;;;;5.60;5.10;;;;;;;;;;5038034;28;20052;-74